Time;durP1;ratioP1;P1;durP2;ratioP2;P2;SDS_P1;SDS_P2;PMS_P1;PMS_P2;Temp;Humidity;BMP_temperature;BMP_pressure;BME280_temperature;BME280_humidity;BME280_pressure;Samples;Min_cycle;Max_cycle;Signal;HPM_P1;HPM_P2
2022/08/12 00:43:35;;;;;;;3.33;0.80;;;22.10;91.90;;;;;;4973468;28;20069;-70
2022/08/12 00:48:48;;;;;;;1.17;0.52;;;22.00;91.90;;;;;;4978104;28;20053;-68
2022/08/12 00:51:13;;;;;;;2.28;0.90;;;22.00;92.10;;;;;;4972569;28;20023;-70
2022/08/12 00:53:39;;;;;;;1.75;0.85;;;21.90;92.10;;;;;;4976894;28;20137;-71
2022/08/12 00:56:06;;;;;;;5.20;0.77;;;21.90;92.10;;;;;;4974945;28;20053;-70
2022/08/12 00:58:33;;;;;;;3.60;1.20;;;21.90;92.20;;;;;;4976339;28;20430;-71
2022/08/12 01:01:03;;;;;;;4.28;0.95;;;21.90;92.20;;;;;;4973749;28;20108;-71
2022/08/12 01:11:52;;;;;;;2.47;0.73;;;21.80;92.70;;;;;;4977744;28;20041;-69
2022/08/12 01:14:22;;;;;;;2.00;0.73;;;21.80;92.50;;;;;;4982944;28;20050;-70
2022/08/12 01:16:49;;;;;;;5.40;1.02;;;21.70;92.70;;;;;;4983625;28;20183;-70
2022/08/12 01:19:19;;;;;;;1.60;0.77;;;21.70;92.80;;;;;;4976967;28;20022;-70
2022/08/12 01:22:16;;;;;;;1.92;0.77;;;21.60;92.90;;;;;;4972126;28;20043;-70
2022/08/12 01:25:08;;;;;;;3.28;0.80;;;21.60;92.90;;;;;;4975808;28;20066;-72
2022/08/12 01:27:39;;;;;;;3.90;0.95;;;21.60;92.80;;;;;;4977574;28;20496;-71
2022/08/12 01:30:07;;;;;;;6.20;0.88;;;21.60;92.90;;;;;;4976905;28;20599;-74
2022/08/12 01:32:36;;;;;;;2.22;0.77;;;21.60;92.80;;;;;;4972219;28;20046;-71
2022/08/12 01:35:08;;;;;;;3.42;0.95;;;21.50;92.80;;;;;;4978450;28;20061;-70
2022/08/12 01:37:54;;;;;;;0.90;0.60;;;21.50;92.90;;;;;;5009140;28;20043;-70
2022/08/12 01:40:25;;;;;;;2.13;1.10;;;21.50;92.90;;;;;;4978470;28;20108;-70
2022/08/12 01:42:56;;;;;;;2.15;1.00;;;21.50;93.00;;;;;;4976501;28;20081;-67
2022/08/12 01:45:23;;;;;;;3.10;0.90;;;21.50;93.00;;;;;;4975704;28;20089;-70
2022/08/12 01:48:18;;;;;;;3.08;1.13;;;21.40;93.00;;;;;;4975088;28;20035;-68
2022/08/12 01:51:25;;;;;;;3.22;1.27;;;21.40;93.10;;;;;;4977381;28;20120;-72
2022/08/12 01:54:05;;;;;;;1.10;0.77;;;21.30;93.20;;;;;;4976670;28;20474;-72
2022/08/12 01:56:48;;;;;;;3.53;0.77;;;21.30;93.20;;;;;;4977327;28;20157;-72
2022/08/12 01:59:57;;;;;;;1.85;0.80;;;21.30;93.50;;;;;;4980959;28;20026;-70
2022/08/12 02:02:26;;;;;;;2.92;1.10;;;21.20;93.50;;;;;;4980502;28;20034;-72
2022/08/12 02:11:21;;;;;;;1.27;0.82;;;21.20;93.60;;;;;;4980058;28;20116;-72
2022/08/12 02:14:05;;;;;;;2.20;0.80;;;21.10;93.70;;;;;;4982644;28;20054;-72
2022/08/12 02:16:49;;;;;;;1.83;0.73;;;21.10;93.90;;;;;;4978060;28;20054;-72
2022/08/12 02:19:15;;;;;;;2.28;0.90;;;21.00;93.80;;;;;;5000608;28;20030;-73
2022/08/12 02:21:54;;;;;;;2.75;0.82;;;21.00;94.00;;;;;;4986331;28;20832;-72
2022/08/12 02:24:25;;;;;;;2.13;0.83;;;21.00;94.10;;;;;;4981816;28;20034;-71
2022/08/12 02:26:56;;;;;;;4.93;0.90;;;21.00;94.10;;;;;;4983946;28;20038;-70
2022/08/12 02:29:22;;;;;;;3.53;1.13;;;20.90;94.10;;;;;;4977929;28;20133;-71
2022/08/12 02:31:49;;;;;;;2.15;0.80;;;20.90;94.30;;;;;;4978086;28;20141;-72
2022/08/12 02:34:16;;;;;;;2.50;0.80;;;20.90;94.40;;;;;;4976551;28;20403;-73
2022/08/12 02:36:44;;;;;;;2.63;0.98;;;20.80;94.40;;;;;;4974342;28;20035;-70
2022/08/12 02:39:13;;;;;;;8.77;1.30;;;20.80;94.40;;;;;;4979567;28;20113;-71
2022/08/12 02:41:42;;;;;;;2.65;1.00;;;20.80;94.50;;;;;;4976314;28;20722;-69
2022/08/12 02:44:09;;;;;;;6.80;1.60;;;20.80;94.70;;;;;;4979224;28;20046;-69
2022/08/12 02:46:36;;;;;;;2.72;1.10;;;20.70;94.70;;;;;;4979864;28;20030;-69
2022/08/12 02:49:31;;;;;;;2.05;1.02;;;20.70;94.70;;;;;;4975190;28;20399;-71
2022/08/12 02:51:59;;;;;;;2.65;0.98;;;20.70;94.70;;;;;;4980300;28;20039;-71
2022/08/12 02:54:25;;;;;;;1.27;0.85;;;20.70;94.80;;;;;;4977511;28;20031;-69
2022/08/12 02:56:53;;;;;;;2.53;0.98;;;20.60;94.90;;;;;;4978367;28;20034;-71
2022/08/12 02:59:23;;;;;;;3.72;0.95;;;20.60;95.10;;;;;;4977681;28;20031;-72
2022/08/12 03:01:50;;;;;;;5.03;1.30;;;20.60;95.20;;;;;;4978021;28;20039;-71
2022/08/12 03:04:46;;;;;;;2.33;1.00;;;20.50;95.30;;;;;;4974895;28;20495;-71
2022/08/12 03:07:30;;;;;;;4.63;0.90;;;20.50;95.40;;;;;;4978429;28;20511;-71
2022/08/12 03:10:09;;;;;;;2.42;1.23;;;20.50;95.50;;;;;;4976539;28;20026;-70
2022/08/12 03:12:41;;;;;;;3.95;1.20;;;20.40;95.70;;;;;;4978745;28;20038;-71
2022/08/12 03:15:10;;;;;;;2.25;0.80;;;20.40;95.60;;;;;;4982610;28;20022;-71
2022/08/12 03:17:47;;;;;;;4.40;1.17;;;20.40;95.70;;;;;;4975724;28;20472;-71
2022/08/12 03:20:16;;;;;;;5.00;0.80;;;20.30;95.80;;;;;;4978165;28;20042;-70
2022/08/12 03:22:43;;;;;;;2.15;1.20;;;20.30;95.90;;;;;;4975252;28;20063;-71
2022/08/12 03:25:26;;;;;;;8.25;1.38;;;20.30;96.10;;;;;;4981856;28;20033;-69
2022/08/12 03:27:56;;;;;;;2.35;0.82;;;20.20;96.10;;;;;;4978458;28;20911;-71
2022/08/12 03:30:27;;;;;;;3.67;1.30;;;20.20;96.30;;;;;;4976682;28;20042;-70
2022/08/12 03:32:56;;;;;;;5.72;1.27;;;20.30;96.40;;;;;;4976888;28;20043;-72
2022/08/12 03:35:29;;;;;;;2.67;1.00;;;20.20;96.30;;;;;;4978629;28;20034;-72
2022/08/12 03:37:58;;;;;;;7.90;1.20;;;20.20;96.50;;;;;;4986148;28;20038;-71
2022/08/12 04:02:45;;;;;;;3.70;1.50;;;19.90;97.60;;;;;;4977307;28;20042;-70
2022/08/12 04:05:12;;;;;;;2.78;1.45;;;19.90;97.60;;;;;;4975298;28;20176;-69
2022/08/12 04:07:38;;;;;;;2.85;1.10;;;19.90;97.70;;;;;;4975091;28;20061;-70
2022/08/12 04:10:05;;;;;;;4.18;1.15;;;19.90;97.80;;;;;;4976483;28;20026;-69
2022/08/12 04:15:18;;;;;;;3.53;1.20;;;19.80;97.90;;;;;;4980191;28;20069;-72
2022/08/12 04:17:46;;;;;;;4.28;1.13;;;19.80;98.00;;;;;;4976058;28;20045;-72
2022/08/12 04:20:18;;;;;;;5.97;1.63;;;19.80;98.00;;;;;;4973770;28;20054;-72
2022/08/12 04:22:44;;;;;;;2.95;1.23;;;19.80;98.00;;;;;;4973411;28;20031;-72
2022/08/12 04:25:11;;;;;;;5.80;1.50;;;19.80;98.10;;;;;;4978978;28;20124;-71
2022/08/12 04:27:37;;;;;;;3.55;1.33;;;19.70;98.20;;;;;;4976013;28;20132;-72
2022/08/12 04:30:05;;;;;;;2.88;1.25;;;19.70;98.40;;;;;;4975769;28;20031;-69
2022/08/12 04:32:33;;;;;;;4.95;1.45;;;19.70;98.50;;;;;;4971166;28;20495;-71
2022/08/12 04:34:58;;;;;;;4.97;1.58;;;19.70;98.50;;;;;;4978352;28;20034;-71
2022/08/12 04:37:24;;;;;;;4.25;1.40;;;19.70;98.50;;;;;;4977158;28;20526;-71
2022/08/12 04:39:51;;;;;;;5.78;1.42;;;19.80;98.50;;;;;;4973519;28;20566;-71
2022/08/12 04:42:17;;;;;;;3.13;1.60;;;19.70;98.40;;;;;;4975214;28;20053;-72
2022/08/12 04:44:43;;;;;;;5.53;1.30;;;19.70;98.60;;;;;;4975514;28;20521;-72
2022/08/12 04:47:13;;;;;;;2.60;1.35;;;19.70;98.70;;;;;;4973220;28;20038;-70
2022/08/12 04:49:41;;;;;;;2.25;1.23;;;19.70;98.60;;;;;;4976365;28;20402;-70
2022/08/12 04:52:08;;;;;;;4.70;1.45;;;19.60;98.70;;;;;;4974415;28;20030;-71
2022/08/12 04:54:34;;;;;;;3.70;1.60;;;19.70;98.80;;;;;;4976188;28;20060;-72
2022/08/12 04:57:00;;;;;;;2.03;1.15;;;19.60;98.90;;;;;;4974049;28;20495;-71
2022/08/12 04:59:26;;;;;;;2.05;1.15;;;19.60;98.90;;;;;;4975980;28;20044;-70
2022/08/12 05:01:52;;;;;;;5.78;1.30;;;19.60;99.00;;;;;;4975395;28;20492;-70
2022/08/12 05:04:20;;;;;;;3.70;1.40;;;19.60;99.20;;;;;;4978033;28;20061;-71
2022/08/12 05:06:46;;;;;;;2.25;1.25;;;19.60;99.30;;;;;;4983922;28;20798;-71
2022/08/12 05:09:13;;;;;;;5.18;1.25;;;19.60;99.30;;;;;;4975654;28;20031;-70
2022/08/12 05:11:39;;;;;;;4.05;1.83;;;19.50;99.40;;;;;;4973860;28;20122;-70
2022/08/12 05:14:05;;;;;;;2.97;1.25;;;19.60;99.10;;;;;;4980485;28;20109;-72
2022/08/12 05:16:31;;;;;;;4.13;1.40;;;19.60;99.10;;;;;;4973593;28;20038;-71
2022/08/12 05:18:57;;;;;;;4.82;1.92;;;19.60;99.10;;;;;;4976275;28;20035;-69
2022/08/12 05:21:23;;;;;;;2.45;1.40;;;19.60;99.10;;;;;;4974316;28;20040;-72
2022/08/12 05:23:49;;;;;;;5.35;1.50;;;19.70;99.10;;;;;;4976094;28;20042;-71
2022/08/12 05:26:15;;;;;;;6.85;1.48;;;19.70;99.00;;;;;;4981440;28;20167;-70
2022/08/12 05:28:40;;;;;;;3.60;1.95;;;19.70;99.00;;;;;;4978953;28;20039;-68
2022/08/12 05:31:06;;;;;;;2.50;1.30;;;19.80;99.00;;;;;;4978249;28;20031;-71
2022/08/12 05:33:39;;;;;;;2.78;1.17;;;19.70;99.00;;;;;;5011765;28;20100;-69
2022/08/12 05:36:07;;;;;;;7.07;1.25;;;19.80;99.10;;;;;;4978639;28;20396;-70
2022/08/12 05:41:19;;;;;;;4.45;1.58;;;19.80;98.90;;;;;;4979376;28;20049;-70
2022/08/12 05:43:50;;;;;;;4.28;1.35;;;19.90;99.00;;;;;;4982014;28;20046;-70
2022/08/12 05:46:17;;;;;;;3.95;1.42;;;19.90;98.80;;;;;;4978324;28;20106;-70
2022/08/12 05:48:42;;;;;;;3.42;1.42;;;20.00;98.80;;;;;;5010513;28;20033;-69
2022/08/12 05:51:10;;;;;;;2.70;1.55;;;20.00;98.90;;;;;;4976943;28;20404;-73
2022/08/12 05:53:38;;;;;;;3.08;1.50;;;20.10;98.70;;;;;;4977590;28;20193;-72
2022/08/12 05:56:05;;;;;;;9.57;2.00;;;20.10;98.30;;;;;;4978159;28;20039;-71
2022/08/12 05:58:31;;;;;;;8.43;1.85;;;20.20;98.40;;;;;;4979939;28;20034;-71
2022/08/12 06:00:58;;;;;;;5.05;1.58;;;20.30;98.40;;;;;;4977169;28;20070;-69
2022/08/12 06:03:24;;;;;;;5.47;1.50;;;20.30;98.40;;;;;;4978728;28;20034;-72
2022/08/12 06:05:51;;;;;;;2.22;1.42;;;20.30;98.20;;;;;;4982581;28;20112;-72
2022/08/12 06:08:17;;;;;;;8.02;2.25;;;20.50;98.20;;;;;;4994834;28;20026;-72
2022/08/12 06:10:44;;;;;;;5.03;1.80;;;20.50;98.10;;;;;;4987709;28;20121;-69
2022/08/12 06:13:13;;;;;;;3.38;1.85;;;20.70;97.90;;;;;;4977823;28;20053;-71
2022/08/12 06:15:40;;;;;;;6.25;1.63;;;20.80;97.30;;;;;;4983754;28;20049;-72
2022/08/12 06:18:08;;;;;;;2.17;1.35;;;20.90;97.30;;;;;;4977547;28;20042;-71
2022/08/12 06:20:34;;;;;;;3.88;1.25;;;21.00;97.20;;;;;;4975879;28;20129;-71
2022/08/12 06:23:00;;;;;;;7.72;1.95;;;21.10;97.10;;;;;;4981573;28;20046;-71
2022/08/12 06:25:27;;;;;;;4.90;1.70;;;21.30;96.80;;;;;;4980386;28;20042;-71
2022/08/12 06:27:55;;;;;;;2.85;1.40;;;21.40;96.40;;;;;;4975346;28;20039;-71
2022/08/12 06:30:21;;;;;;;3.70;1.60;;;21.70;95.70;;;;;;4977542;28;20030;-70
2022/08/12 06:32:48;;;;;;;6.95;1.80;;;21.90;95.40;;;;;;4975008;28;20046;-71
2022/08/12 06:35:16;;;;;;;5.32;1.45;;;22.20;95.30;;;;;;4979635;28;20034;-71
2022/08/12 06:37:46;;;;;;;5.85;1.50;;;22.50;95.10;;;;;;4979149;28;20035;-69
2022/08/12 06:40:12;;;;;;;5.05;1.20;;;22.90;94.30;;;;;;4983111;28;20137;-71
2022/08/12 06:42:48;;;;;;;4.20;1.33;;;23.40;94.00;;;;;;4974946;28;20038;-72
2022/08/12 06:45:14;;;;;;;5.07;1.40;;;24.10;92.70;;;;;;4979043;28;20045;-70
2022/08/12 06:47:40;;;;;;;3.50;1.33;;;24.80;91.70;;;;;;4978519;28;20042;-71
2022/08/12 06:50:06;;;;;;;5.53;1.20;;;25.60;90.60;;;;;;4978239;28;20338;-70
2022/08/12 06:52:32;;;;;;;2.55;1.27;;;26.30;90.20;;;;;;4977723;28;20046;-71
2022/08/12 06:54:58;;;;;;;2.75;1.30;;;26.90;86.80;;;;;;4975606;28;20057;-68
2022/08/12 06:57:28;;;;;;;3.22;1.25;;;27.30;87.00;;;;;;4980036;28;20438;-71
2022/08/12 06:59:54;;;;;;;;;;;28.10;86.80;;;;;;4976272;28;20129;-72
2022/08/12 07:02:21;;;;;;;3.90;0.98;;;28.80;85.10;;;;;;4977527;28;20901;-72
2022/08/12 07:04:48;;;;;;;2.88;1.20;;;29.60;81.40;;;;;;4980996;28;20134;-69
2022/08/12 07:07:14;;;;;;;3.05;1.40;;;30.10;80.80;;;;;;4983032;28;20446;-72
2022/08/12 07:09:41;;;;;;;9.02;1.80;;;30.50;79.90;;;;;;4981184;28;20033;-72
2022/08/12 07:12:15;;;;;;;3.60;1.42;;;30.80;77.60;;;;;;4981826;28;20030;-72
2022/08/12 07:14:41;;;;;;;5.35;1.38;;;31.40;77.90;;;;;;4984924;28;20049;-73
2022/08/12 07:17:06;;;;;;;5.43;1.92;;;31.80;75.60;;;;;;4985138;28;20043;-71
2022/08/12 07:19:33;;;;;;;4.00;1.80;;;32.50;72.30;;;;;;4982975;28;20026;-71
2022/08/12 07:22:05;;;;;;;3.78;1.85;;;32.60;72.60;;;;;;4986120;28;20027;-72
2022/08/12 07:24:31;;;;;;;5.05;1.60;;;32.50;71.00;;;;;;4983315;28;20057;-73
2022/08/12 07:26:57;;;;;;;2.72;1.73;;;32.10;72.00;;;;;;4984677;28;20045;-72
2022/08/12 07:29:24;;;;;;;9.77;1.77;;;31.80;70.90;;;;;;4981144;28;20038;-72
2022/08/12 07:31:51;;;;;;;6.07;2.03;;;31.50;71.70;;;;;;4985180;28;20034;-72
2022/08/12 07:34:17;;;;;;;3.45;1.73;;;31.10;71.90;;;;;;4983647;28;20506;-73
2022/08/12 07:36:44;;;;;;;4.18;1.77;;;30.30;72.70;;;;;;4984639;28;20038;-71
2022/08/12 07:39:10;;;;;;;2.95;1.50;;;29.70;73.40;;;;;;4984358;28;20026;-72
2022/08/12 07:41:36;;;;;;;3.13;1.40;;;29.00;74.70;;;;;;4983144;28;20064;-70
2022/08/12 07:44:06;;;;;;;4.15;1.35;;;28.50;75.10;;;;;;4983505;28;20038;-72
2022/08/12 07:46:37;;;;;;;5.75;1.90;;;28.10;76.40;;;;;;4984432;28;20038;-71
2022/08/12 07:49:09;;;;;;;9.27;1.60;;;27.80;78.00;;;;;;4984429;28;20049;-69
2022/08/12 07:51:35;;;;;;;3.80;1.55;;;27.40;78.10;;;;;;4983353;28;20066;-71
2022/08/12 07:54:08;;;;;;;5.93;1.23;;;27.30;78.20;;;;;;4984594;28;20034;-72
2022/08/12 07:56:34;;;;;;;8.25;1.38;;;27.10;78.70;;;;;;4976542;28;20045;-70
2022/08/12 07:59:01;;;;;;;8.27;1.00;;;26.90;79.20;;;;;;4976143;28;20050;-69
2022/08/12 08:01:28;;;;;;;1.95;1.30;;;26.80;79.70;;;;;;4975561;28;20181;-72
2022/08/12 08:06:41;;;;;;;1.98;0.80;;;26.60;80.50;;;;;;4975141;28;20060;-72
2022/08/12 08:09:09;;;;;;;11.55;1.08;;;26.60;81.10;;;;;;4976732;28;20031;-71
2022/08/12 08:14:19;;;;;;;3.50;0.93;;;26.60;80.60;;;;;;4981864;28;20422;-70
2022/08/12 08:16:47;;;;;;;2.85;0.77;;;26.70;79.20;;;;;;4975090;28;20038;-69
2022/08/12 08:19:22;;;;;;;7.47;1.52;;;26.70;80.60;;;;;;4977436;28;20041;-71
2022/08/12 08:21:49;;;;;;;4.93;1.30;;;26.80;78.70;;;;;;4977841;28;20101;-72
2022/08/12 08:24:15;;;;;;;2.60;1.20;;;26.90;78.50;;;;;;4976737;28;20030;-70
2022/08/12 08:26:47;;;;;;;2.33;0.88;;;27.00;78.60;;;;;;4979084;28;20042;-70
2022/08/12 08:29:14;;;;;;;1.17;0.70;;;27.00;76.40;;;;;;4971963;28;20031;-72
2022/08/12 08:31:44;;;;;;;2.95;1.25;;;27.10;78.40;;;;;;4977470;28;20056;-70
2022/08/12 08:34:11;;;;;;;4.55;1.10;;;27.20;78.30;;;;;;4976493;28;20038;-73
2022/08/12 08:36:38;;;;;;;4.65;0.95;;;27.20;78.10;;;;;;4974556;28;20505;-72
2022/08/12 08:39:05;;;;;;;2.35;1.00;;;27.20;78.10;;;;;;4974962;28;20034;-72
2022/08/12 08:44:15;;;;;;;3.53;1.70;;;27.50;74.50;;;;;;4977049;28;20040;-71
2022/08/12 08:46:43;;;;;;;11.60;1.90;;;27.50;74.10;;;;;;4974873;28;20485;-71
2022/08/12 08:49:09;;;;;;;7.53;1.50;;;27.60;74.80;;;;;;4976754;28;20038;-72
2022/08/12 08:51:35;;;;;;;4.68;1.23;;;27.60;75.20;;;;;;4975128;28;20483;-71
2022/08/12 08:54:01;;;;;;;3.33;1.00;;;27.80;74.90;;;;;;4974881;28;20061;-69
2022/08/12 08:56:30;;;;;;;3.83;1.17;;;27.80;74.40;;;;;;4976385;28;20026;-72
2022/08/12 08:58:56;;;;;;;2.42;1.20;;;27.90;73.00;;;;;;4974577;28;20495;-72
2022/08/12 09:01:22;;;;;;;4.78;1.10;;;28.00;73.50;;;;;;4975106;28;20039;-72
2022/08/12 09:03:48;;;;;;;4.22;1.00;;;28.00;72.20;;;;;;4975085;28;20495;-72
2022/08/12 09:06:14;;;;;;;1.75;1.00;;;28.10;73.30;;;;;;4973335;28;20039;-72
2022/08/12 09:08:43;;;;;;;6.70;1.23;;;28.30;71.70;;;;;;5008628;28;20053;-72
2022/08/12 09:13:54;;;;;;;10.20;1.48;;;28.40;71.10;;;;;;4979109;28;20042;-73
2022/08/12 09:16:20;;;;;;;4.78;1.00;;;28.70;69.70;;;;;;4976531;28;20031;-73
2022/08/12 09:18:46;;;;;;;2.38;1.10;;;28.80;69.60;;;;;;4973190;28;20430;-70
2022/08/12 09:21:12;;;;;;;4.35;1.00;;;28.80;70.90;;;;;;4977267;28;20035;-72
2022/08/12 09:23:38;;;;;;;3.67;1.10;;;28.90;69.50;;;;;;4972629;28;20447;-72
2022/08/12 09:26:04;;;;;;;1.80;0.68;;;28.90;70.90;;;;;;4985930;28;20041;-72
2022/08/12 09:28:32;;;;;;;2.15;0.88;;;29.10;67.20;;;;;;4979231;28;20114;-73
2022/08/12 09:30:59;;;;;;;5.75;1.15;;;29.20;67.30;;;;;;4975474;28;20039;-73
2022/08/12 09:33:29;;;;;;;5.68;1.25;;;29.20;68.70;;;;;;4975181;28;20138;-71
2022/08/12 09:35:56;;;;;;;2.88;0.90;;;29.30;67.50;;;;;;4980034;28;20041;-73
2022/08/12 09:38:22;;;;;;;4.15;1.52;;;29.40;67.10;;;;;;4977974;28;20492;-72
2022/08/12 09:40:48;;;;;;;5.57;1.27;;;29.50;68.20;;;;;;4973791;28;20093;-70
2022/08/12 09:45:59;;;;;;;2.90;0.90;;;29.50;66.60;;;;;;4977453;28;20173;-72
2022/08/12 09:48:25;;;;;;;8.13;1.02;;;29.70;64.60;;;;;;4975858;28;20118;-72
2022/08/12 09:50:51;;;;;;;6.35;1.30;;;29.70;65.10;;;;;;5007877;28;20046;-70
2022/08/12 09:53:23;;;;;;;3.40;1.05;;;29.80;66.10;;;;;;4973516;28;20090;-69
2022/08/12 09:55:52;;;;;;;3.08;1.35;;;29.80;66.90;;;;;;4976155;28;20027;-71
2022/08/12 09:58:25;;;;;;;3.22;1.00;;;29.90;66.10;;;;;;4973154;28;20415;-72
2022/08/12 10:00:53;;;;;;;6.30;1.33;;;29.90;67.50;;;;;;4974831;28;20038;-72
2022/08/12 10:03:20;;;;;;;1.75;0.73;;;30.00;65.30;;;;;;4972476;28;20113;-72
2022/08/12 10:05:47;;;;;;;5.55;1.08;;;30.10;66.40;;;;;;4974412;28;20043;-72
2022/08/12 10:08:15;;;;;;;3.60;0.98;;;30.10;64.60;;;;;;4973492;28;20064;-72
2022/08/12 10:13:40;;;;;;;2.55;0.80;;;30.30;64.80;;;;;;4975289;28;20050;-73
2022/08/12 10:16:06;;;;;;;6.18;1.00;;;30.30;63.00;;;;;;4978124;28;20038;-71
2022/08/12 10:18:35;;;;;;;3.65;0.80;;;30.40;62.80;;;;;;4977838;28;20097;-73
2022/08/12 10:21:04;;;;;;;2.33;1.05;;;30.50;62.90;;;;;;4976507;28;20105;-72
2022/08/12 10:23:30;;;;;;;8.52;1.30;;;30.50;61.90;;;;;;4975684;28;20093;-73
2022/08/12 10:31:23;;;;;;;1.92;0.80;;;30.60;61.70;;;;;;4978342;28;20042;-73
2022/08/12 10:33:49;;;;;;;9.25;0.98;;;30.60;61.80;;;;;;4975972;28;20042;-70
2022/08/12 10:36:15;;;;;;;3.40;0.65;;;30.70;61.10;;;;;;4978860;28;20034;-73
2022/08/12 10:38:40;;;;;;;1.48;0.70;;;30.70;62.00;;;;;;4976444;28;20050;-73
2022/08/12 10:43:50;;;;;;;4.00;0.95;;;30.80;59.80;;;;;;4979775;28;20190;-72
2022/08/12 10:46:16;;;;;;;1.00;0.70;;;31.00;59.40;;;;;;4978182;28;20759;-72
2022/08/12 10:48:46;;;;;;;3.47;0.70;;;31.00;58.20;;;;;;4976038;28;20407;-71
2022/08/12 10:51:13;;;;;;;2.15;1.00;;;31.00;60.00;;;;;;4978456;28;20066;-71
2022/08/12 10:53:42;;;;;;;2.45;0.73;;;31.00;59.00;;;;;;4974881;28;20534;-71
2022/08/12 10:56:10;;;;;;;4.68;0.60;;;31.00;60.20;;;;;;4977392;28;20050;-72
2022/08/12 10:58:39;;;;;;;3.67;1.10;;;31.10;60.50;;;;;;4979462;28;20042;-73
2022/08/12 11:01:05;;;;;;;4.90;1.27;;;31.20;60.10;;;;;;4986448;28;20129;-72
2022/08/12 11:03:36;;;;;;;2.80;0.80;;;31.30;58.50;;;;;;4975125;28;20134;-72
2022/08/12 11:06:06;;;;;;;5.25;1.45;;;31.20;58.10;;;;;;4978187;28;20100;-71
2022/08/12 11:08:34;;;;;;;2.20;0.90;;;31.30;58.80;;;;;;4975364;28;20109;-73
2022/08/12 11:11:00;;;;;;;2.30;1.00;;;31.30;59.30;;;;;;4975109;28;20038;-70
2022/08/12 11:13:26;;;;;;;1.95;0.95;;;31.30;58.40;;;;;;4977802;28;20097;-69
2022/08/12 11:15:54;;;;;;;3.08;0.70;;;31.30;58.30;;;;;;4982769;28;20038;-70
2022/08/12 11:18:21;;;;;;;2.65;0.82;;;31.30;59.40;;;;;;4980775;28;20038;-71
2022/08/12 11:20:47;;;;;;;1.25;0.98;;;31.30;59.50;;;;;;4977240;28;20388;-73
2022/08/12 11:23:13;;;;;;;1.95;0.93;;;31.30;58.80;;;;;;4974943;28;20127;-71
2022/08/12 11:25:41;;;;;;;2.58;0.90;;;31.30;58.90;;;;;;4984614;28;20129;-72
2022/08/12 11:28:07;;;;;;;2.08;1.00;;;31.30;59.70;;;;;;4978257;28;20034;-71
2022/08/12 11:30:32;;;;;;;2.92;0.93;;;31.40;59.40;;;;;;5006377;28;20594;-71
2022/08/12 11:32:58;;;;;;;1.95;0.80;;;31.40;58.40;;;;;;4980025;28;20073;-71
2022/08/12 11:35:23;;;;;;;3.17;0.90;;;31.40;59.60;;;;;;4977592;28;20117;-72
2022/08/12 11:37:49;;;;;;;0.98;0.60;;;31.40;59.10;;;;;;4977087;28;20050;-72
2022/08/12 11:40:14;;;;;;;1.42;0.98;;;31.30;59.00;;;;;;4983627;28;20039;-72
2022/08/12 11:42:41;;;;;;;1.08;0.70;;;31.40;58.70;;;;;;4986945;28;20156;-71
2022/08/12 11:45:08;;;;;;;4.80;1.33;;;31.40;58.20;;;;;;4990128;28;20117;-70
2022/08/12 11:47:33;;;;;;;4.88;1.00;;;31.40;58.10;;;;;;4983131;28;20058;-72
2022/08/12 11:49:59;;;;;;;4.95;0.90;;;31.30;57.20;;;;;;5010050;28;20120;-71
2022/08/12 11:52:24;;;;;;;2.35;1.05;;;31.30;57.40;;;;;;4976326;28;20523;-69
2022/08/12 11:54:50;;;;;;;2.00;1.10;;;31.30;58.30;;;;;;4974796;28;20529;-68
2022/08/12 11:57:16;;;;;;;2.60;1.08;;;31.30;57.00;;;;;;4976472;28;20031;-69
2022/08/12 11:59:42;;;;;;;4.32;1.02;;;31.20;57.20;;;;;;4984065;28;20654;-71
2022/08/12 12:02:08;;;;;;;2.33;0.75;;;31.10;57.90;;;;;;4973478;28;20571;-71
2022/08/12 12:04:33;;;;;;;3.33;1.00;;;31.10;56.90;;;;;;5009444;28;20026;-70
2022/08/12 12:06:59;;;;;;;3.88;1.30;;;31.10;56.80;;;;;;4975659;28;20049;-70
2022/08/12 12:09:25;;;;;;;5.68;1.10;;;31.10;57.30;;;;;;4976156;28;20165;-70
2022/08/12 12:11:51;;;;;;;1.40;0.90;;;31.10;57.20;;;;;;5006951;28;20042;-70
2022/08/12 12:14:16;;;;;;;4.68;0.80;;;31.00;57.50;;;;;;4973229;28;20035;-69
2022/08/12 12:16:42;;;;;;;6.55;1.20;;;31.00;57.60;;;;;;4983487;28;20035;-71
2022/08/12 12:19:08;;;;;;;2.28;0.77;;;31.00;57.20;;;;;;4974419;28;20041;-69
2022/08/12 12:21:33;;;;;;;1.35;0.90;;;31.10;57.20;;;;;;4977080;28;20038;-71
2022/08/12 12:23:59;;;;;;;2.03;1.02;;;31.10;56.70;;;;;;4971474;28;21459;-72
2022/08/12 12:26:24;;;;;;;1.67;1.05;;;31.00;57.80;;;;;;4984456;28;21708;-70
2022/08/12 12:28:50;;;;;;;9.02;1.15;;;31.00;56.70;;;;;;4984273;28;20053;-70
2022/08/12 12:31:16;;;;;;;2.25;1.00;;;30.80;57.40;;;;;;4978528;28;20031;-67
2022/08/12 12:33:41;;;;;;;2.65;0.80;;;30.70;58.80;;;;;;4975043;28;20031;-70
2022/08/12 12:36:07;;;;;;;5.90;1.20;;;30.70;58.50;;;;;;4979053;28;20030;-69
2022/08/12 12:38:33;;;;;;;4.10;1.58;;;30.70;58.80;;;;;;4975473;28;20411;-70
2022/08/12 12:40:59;;;;;;;2.28;0.98;;;30.60;58.00;;;;;;4976058;28;20030;-70
2022/08/12 12:43:25;;;;;;;1.80;1.10;;;30.60;59.10;;;;;;4976261;28;20039;-70
2022/08/12 12:45:51;;;;;;;5.93;1.50;;;30.70;58.30;;;;;;4978641;28;20075;-71
2022/08/12 12:48:18;;;;;;;1.75;0.65;;;30.70;58.80;;;;;;5010675;28;20122;-70
2022/08/12 12:53:38;;;;;;;11.48;1.30;;;30.80;57.10;;;;;;4974686;28;20160;-70
2022/08/12 12:56:04;;;;;;;1.10;0.70;;;30.80;57.90;;;;;;4973626;28;20468;-72
2022/08/12 12:58:30;;;;;;;3.33;1.00;;;30.80;57.50;;;;;;4977209;28;20169;-70
2022/08/12 13:00:58;;;;;;;3.75;1.05;;;30.80;57.70;;;;;;4973889;28;20505;-69
2022/08/12 13:03:24;;;;;;;4.47;0.95;;;30.80;58.10;;;;;;4975889;28;20494;-70
2022/08/12 13:05:51;;;;;;;2.45;0.52;;;30.80;58.40;;;;;;4978515;28;20030;-70
2022/08/12 13:08:29;;;;;;;1.65;0.80;;;30.70;57.90;;;;;;4972999;28;20103;-70
2022/08/12 13:11:00;;;;;;;3.95;0.88;;;30.80;58.10;;;;;;4974905;28;20037;-70
2022/08/12 13:13:28;;;;;;;1.52;1.00;;;30.70;56.80;;;;;;4972708;28;20046;-70
2022/08/12 13:15:55;;;;;;;8.75;1.10;;;30.70;57.90;;;;;;4974472;28;20040;-69
2022/08/12 13:18:21;;;;;;;2.53;0.77;;;30.70;57.00;;;;;;4974178;28;20390;-70
2022/08/12 13:20:47;;;;;;;9.98;1.10;;;30.70;56.70;;;;;;4974521;28;20076;-69
2022/08/12 13:23:18;;;;;;;3.45;1.00;;;30.70;57.60;;;;;;4967215;28;20038;-70
2022/08/12 13:25:48;;;;;;;2.05;1.05;;;30.80;57.70;;;;;;4981522;28;20019;-70
2022/08/12 13:28:29;;;;;;;3.78;0.90;;;30.80;57.90;;;;;;4971262;28;20077;-70
2022/08/12 13:30:58;;;;;;;4.07;1.25;;;30.90;57.20;;;;;;4981923;28;20427;-70
2022/08/12 13:33:28;;;;;;;3.75;1.17;;;30.90;57.70;;;;;;4981144;28;20030;-70
2022/08/12 13:36:00;;;;;;;2.80;0.70;;;30.90;59.10;;;;;;4975067;28;20498;-71
2022/08/12 13:38:52;;;;;;;3.35;1.35;;;30.80;61.40;;;;;;4969414;28;20038;-70
2022/08/12 13:41:35;;;;;;;2.47;0.88;;;30.80;61.50;;;;;;4976310;28;20080;-70
2022/08/12 13:44:08;;;;;;;1.77;1.30;;;30.80;57.30;;;;;;4974910;28;20109;-70
2022/08/12 13:46:36;;;;;;;3.75;0.93;;;30.70;56.90;;;;;;4976274;28;20038;-70
2022/08/12 13:49:03;;;;;;;10.82;1.23;;;30.70;58.00;;;;;;4979157;28;20039;-70
2022/08/12 13:51:29;;;;;;;2.70;1.02;;;30.70;57.10;;;;;;4980870;28;20518;-70
2022/08/12 13:53:54;;;;;;;2.83;0.95;;;30.70;56.50;;;;;;5007136;28;20031;-70
2022/08/12 13:56:22;;;;;;;3.20;1.35;;;30.70;56.90;;;;;;4979953;28;20455;-71
2022/08/12 13:58:49;;;;;;;1.17;0.90;;;30.70;57.70;;;;;;4977361;28;20050;-69
2022/08/12 14:01:16;;;;;;;1.27;1.00;;;30.70;56.60;;;;;;4976823;28;20038;-70
2022/08/12 14:03:43;;;;;;;1.63;0.90;;;30.70;57.70;;;;;;4979360;28;20089;-68
2022/08/12 14:06:11;;;;;;;4.00;0.70;;;30.60;58.60;;;;;;4980180;28;20129;-70
2022/08/12 14:08:36;;;;;;;1.20;0.80;;;30.50;58.20;;;;;;4983611;28;20092;-68
2022/08/12 14:11:02;;;;;;;0.88;0.60;;;30.60;58.20;;;;;;4975136;28;20039;-69
2022/08/12 14:13:29;;;;;;;2.90;0.80;;;30.50;58.00;;;;;;4977597;28;20473;-71
2022/08/12 14:16:01;;;;;;;1.20;0.73;;;30.60;58.20;;;;;;4977648;28;20038;-70
2022/08/12 14:18:29;;;;;;;6.90;1.17;;;30.60;57.90;;;;;;4974608;28;20094;-69
2022/08/12 14:21:08;;;;;;;1.40;0.80;;;30.60;57.90;;;;;;4979450;28;20069;-70
2022/08/12 14:23:36;;;;;;;2.00;1.00;;;30.60;58.20;;;;;;4977144;28;20685;-71
2022/08/12 14:26:04;;;;;;;2.58;0.60;;;30.50;56.90;;;;;;4984661;28;20034;-71
2022/08/12 14:28:33;;;;;;;2.35;0.50;;;30.60;57.20;;;;;;4981762;28;20554;-70
2022/08/12 14:31:03;;;;;;;4.13;0.77;;;30.60;57.40;;;;;;4983151;28;20522;-70
2022/08/12 14:33:34;;;;;;;;;;;30.60;57.20;;;;;;4974443;28;20038;-71
2022/08/12 14:36:02;;;;;;;2.08;0.80;;;30.50;57.70;;;;;;5008746;28;19928;-70
2022/08/12 14:38:29;;;;;;;6.72;1.45;;;30.60;56.90;;;;;;4986362;28;20042;-70
2022/08/12 14:41:00;;;;;;;3.83;0.82;;;30.60;57.40;;;;;;5009628;28;20875;-71
2022/08/12 14:43:34;;;;;;;6.75;1.10;;;30.70;56.00;;;;;;4977389;28;20038;-70
2022/08/12 14:46:02;;;;;;;1.45;0.90;;;30.60;56.90;;;;;;4981014;28;20479;-70
2022/08/12 14:48:28;;;;;;;2.65;0.45;;;30.60;57.20;;;;;;4985437;28;20619;-70
2022/08/12 14:50:54;;;;;;;4.43;0.82;;;30.60;57.70;;;;;;4984756;28;20039;-70